sensor_id;sensor_type;location;lat;lon;timestamp;pressure;altitude;pressure_sealevel;temperature;humidity
83448;BME280;73376;45.472;-73.568;2024-02-15T00:00:52;101548.06;;;-4.44;32.29
83448;BME280;73376;45.472;-73.568;2024-02-15T00:03:19;101525.72;;;-4.70;32.67
83448;BME280;73376;45.472;-73.568;2024-02-15T00:05:45;101559.13;;;-4.50;32.69
83448;BME280;73376;45.472;-73.568;2024-02-15T00:08:12;101574.50;;;-4.54;33.17
83448;BME280;73376;45.472;-73.568;2024-02-15T00:10:40;101550.69;;;-4.71;33.06
83448;BME280;73376;45.472;-73.568;2024-02-15T00:13:06;101586.78;;;-4.52;33.11
83448;BME280;73376;45.472;-73.568;2024-02-15T00:15:35;101500.34;;;-5.05;33.18
83448;BME280;73376;45.472;-73.568;2024-02-15T00:18:04;101592.22;;;-4.53;33.00
83448;BME280;73376;45.472;-73.568;2024-02-15T00:20:32;101602.22;;;-4.57;33.02
83448;BME280;73376;45.472;-73.568;2024-02-15T00:23:01;101575.19;;;-4.79;33.26
83448;BME280;73376;45.472;-73.568;2024-02-15T00:25:27;101586.03;;;-4.68;33.14
83448;BME280;73376;45.472;-73.568;2024-02-15T00:27:53;101559.19;;;-4.93;33.23
83448;BME280;73376;45.472;-73.568;2024-02-15T00:30:19;101559.50;;;-4.98;33.39
83448;BME280;73376;45.472;-73.568;2024-02-15T00:32:45;101573.19;;;-4.90;33.25
83448;BME280;73376;45.472;-73.568;2024-02-15T00:35:12;101609.41;;;-4.71;33.20
83448;BME280;73376;45.472;-73.568;2024-02-15T00:37:40;101594.34;;;-4.87;33.22
83448;BME280;73376;45.472;-73.568;2024-02-15T00:40:07;101573.97;;;-5.02;33.30
83448;BME280;73376;45.472;-73.568;2024-02-15T00:42:35;101554.81;;;-5.09;33.52
83448;BME280;73376;45.472;-73.568;2024-02-15T00:45:02;101562.16;;;-5.12;33.40
83448;BME280;73376;45.472;-73.568;2024-02-15T00:47:28;101610.53;;;-4.90;33.53
83448;BME280;73376;45.472;-73.568;2024-02-15T00:49:57;101608.03;;;-4.93;33.90
83448;BME280;73376;45.472;-73.568;2024-02-15T00:52:23;101576.81;;;-5.19;34.06
83448;BME280;73376;45.472;-73.568;2024-02-15T00:54:49;101581.19;;;-5.18;34.32
83448;BME280;73376;45.472;-73.568;2024-02-15T00:57:17;101587.66;;;-5.22;34.43
83448;BME280;73376;45.472;-73.568;2024-02-15T00:59:43;101568.13;;;-5.37;34.46
83448;BME280;73376;45.472;-73.568;2024-02-15T01:02:09;101578.22;;;-5.42;34.46
83448;BME280;73376;45.472;-73.568;2024-02-15T01:04:35;101584.22;;;-5.25;34.47
83448;BME280;73376;45.472;-73.568;2024-02-15T01:07:01;101592.41;;;-5.28;34.70
83448;BME280;73376;45.472;-73.568;2024-02-15T01:09:29;101611.16;;;-5.29;34.87
83448;BME280;73376;45.472;-73.568;2024-02-15T01:11:58;101583.63;;;-5.44;34.74
83448;BME280;73376;45.472;-73.568;2024-02-15T01:14:24;101612.03;;;-5.29;34.91
83448;BME280;73376;45.472;-73.568;2024-02-15T01:16:50;101624.19;;;-5.39;34.79
83448;BME280;73376;45.472;-73.568;2024-02-15T01:19:18;101615.19;;;-5.52;34.92
83448;BME280;73376;45.472;-73.568;2024-02-15T01:21:44;101589.06;;;-5.76;35.02
83448;BME280;73376;45.472;-73.568;2024-02-15T01:24:12;101651.53;;;-5.51;35.11
83448;BME280;73376;45.472;-73.568;2024-02-15T01:26:40;101616.78;;;-5.64;35.26
83448;BME280;73376;45.472;-73.568;2024-02-15T01:29:06;101636.31;;;-5.63;35.18
83448;BME280;73376;45.472;-73.568;2024-02-15T01:31:36;101636.16;;;-5.76;35.04
83448;BME280;73376;45.472;-73.568;2024-02-15T01:34:02;101661.88;;;-5.61;35.17
83448;BME280;73376;45.472;-73.568;2024-02-15T01:36:28;101641.38;;;-5.75;35.11
83448;BME280;73376;45.472;-73.568;2024-02-15T01:38:54;101626.03;;;-5.85;35.05
83448;BME280;73376;45.472;-73.568;2024-02-15T01:41:20;101666.69;;;-5.67;35.08
83448;BME280;73376;45.472;-73.568;2024-02-15T01:43:46;101579.22;;;-6.20;35.16
83448;BME280;73376;45.472;-73.568;2024-02-15T01:46:14;101664.59;;;-5.77;35.08
83448;BME280;73376;45.472;-73.568;2024-02-15T01:48:41;101669.91;;;-5.77;35.26
83448;BME280;73376;45.472;-73.568;2024-02-15T01:51:10;101660.56;;;-5.84;35.50
83448;BME280;73376;45.472;-73.568;2024-02-15T01:53:38;101661.13;;;-5.93;35.32
83448;BME280;73376;45.472;-73.568;2024-02-15T01:56:04;101672.81;;;-5.81;35.41
83448;BME280;73376;45.472;-73.568;2024-02-15T01:58:32;101667.09;;;-5.89;35.30
83448;BME280;73376;45.472;-73.568;2024-02-15T02:00:58;101674.44;;;-5.93;35.38
83448;BME280;73376;45.472;-73.568;2024-02-15T02:03:25;101668.97;;;-5.91;35.20
83448;BME280;73376;45.472;-73.568;2024-02-15T02:05:52;101646.44;;;-6.16;35.46
83448;BME280;73376;45.472;-73.568;2024-02-15T02:08:18;101691.69;;;-6.00;35.42
83448;BME280;73376;45.472;-73.568;2024-02-15T02:10:44;101654.84;;;-6.24;35.58
83448;BME280;73376;45.472;-73.568;2024-02-15T02:13:11;101701.22;;;-5.96;35.60
83448;BME280;73376;45.472;-73.568;2024-02-15T02:15:40;101709.53;;;-6.02;35.21
83448;BME280;73376;45.472;-73.568;2024-02-15T02:18:06;101703.97;;;-6.13;35.72
83448;BME280;73376;45.472;-73.568;2024-02-15T02:20:34;101684.28;;;-6.27;35.78
83448;BME280;73376;45.472;-73.568;2024-02-15T02:23:07;101708.50;;;-6.15;35.83
83448;BME280;73376;45.472;-73.568;2024-02-15T02:25:33;101697.84;;;-6.15;35.81
83448;BME280;73376;45.472;-73.568;2024-02-15T02:28:00;101681.00;;;-6.32;36.00
83448;BME280;73376;45.472;-73.568;2024-02-15T02:30:29;101674.84;;;-6.32;35.71
83448;BME280;73376;45.472;-73.568;2024-02-15T02:32:56;101708.44;;;-6.14;35.75
83448;BME280;73376;45.472;-73.568;2024-02-15T02:35:32;101706.97;;;-6.20;35.88
83448;BME280;73376;45.472;-73.568;2024-02-15T02:38:01;101706.19;;;-6.22;35.98
83448;BME280;73376;45.472;-73.568;2024-02-15T02:40:30;101697.69;;;-6.28;35.99
83448;BME280;73376;45.472;-73.568;2024-02-15T02:42:57;101678.63;;;-6.36;36.27
83448;BME280;73376;45.472;-73.568;2024-02-15T02:45:25;101677.25;;;-6.44;36.01
83448;BME280;73376;45.472;-73.568;2024-02-15T02:47:52;101699.75;;;-6.33;36.05
83448;BME280;73376;45.472;-73.568;2024-02-15T02:50:20;101718.09;;;-6.29;36.15
83448;BME280;73376;45.472;-73.568;2024-02-15T02:52:46;101699.53;;;-6.46;36.15
83448;BME280;73376;45.472;-73.568;2024-02-15T02:55:14;101721.34;;;-6.39;36.57
83448;BME280;73376;45.472;-73.568;2024-02-15T02:57:41;101736.72;;;-6.45;36.56
83448;BME280;73376;45.472;-73.568;2024-02-15T03:00:09;101700.69;;;-6.68;36.54
83448;BME280;73376;45.472;-73.568;2024-02-15T03:02:46;101710.22;;;-6.63;36.62
83448;BME280;73376;45.472;-73.568;2024-02-15T03:05:12;101736.19;;;-6.51;36.64
83448;BME280;73376;45.472;-73.568;2024-02-15T03:07:41;101697.59;;;-6.76;36.83
83448;BME280;73376;45.472;-73.568;2024-02-15T03:10:09;101698.47;;;-6.75;36.81
83448;BME280;73376;45.472;-73.568;2024-02-15T03:12:36;101716.81;;;-6.71;36.77
83448;BME280;73376;45.472;-73.568;2024-02-15T03:15:07;101678.41;;;-6.98;37.14
83448;BME280;73376;45.472;-73.568;2024-02-15T03:17:43;101721.84;;;-6.82;37.24
83448;BME280;73376;45.472;-73.568;2024-02-15T03:20:11;101755.38;;;-6.62;37.21
83448;BME280;73376;45.472;-73.568;2024-02-15T03:22:57;101752.78;;;-6.63;37.13
83448;BME280;73376;45.472;-73.568;2024-02-15T03:25:24;101763.50;;;-6.65;37.13
83448;BME280;73376;45.472;-73.568;2024-02-15T03:28:00;101735.31;;;-6.85;37.20
83448;BME280;73376;45.472;-73.568;2024-02-15T03:30:31;101760.22;;;-6.70;37.34
83448;BME280;73376;45.472;-73.568;2024-02-15T03:33:03;101722.47;;;-6.94;37.37
83448;BME280;73376;45.472;-73.568;2024-02-15T03:35:30;101752.97;;;-6.84;37.54
83448;BME280;73376;45.472;-73.568;2024-02-15T03:37:57;101758.22;;;-6.82;37.65
83448;BME280;73376;45.472;-73.568;2024-02-15T03:40:24;101736.72;;;-6.95;37.42
83448;BME280;73376;45.472;-73.568;2024-02-15T03:42:54;101729.84;;;-6.99;37.48
83448;BME280;73376;45.472;-73.568;2024-02-15T03:45:21;101763.34;;;-6.79;37.59
83448;BME280;73376;45.472;-73.568;2024-02-15T03:47:54;101780.94;;;-6.77;37.85
83448;BME280;73376;45.472;-73.568;2024-02-15T03:50:23;101786.50;;;-6.81;37.93
83448;BME280;73376;45.472;-73.568;2024-02-15T03:52:50;101793.63;;;-6.82;38.11
83448;BME280;73376;45.472;-73.568;2024-02-15T03:55:19;101781.66;;;-6.91;37.88
83448;BME280;73376;45.472;-73.568;2024-02-15T03:57:47;101741.88;;;-7.09;38.00
83448;BME280;73376;45.472;-73.568;2024-02-15T04:00:14;101783.56;;;-6.93;37.93
83448;BME280;73376;45.472;-73.568;2024-02-15T04:02:40;101795.75;;;-6.88;38.24
83448;BME280;73376;45.472;-73.568;2024-02-15T04:05:07;101779.84;;;-7.07;38.60
83448;BME280;73376;45.472;-73.568;2024-02-15T04:07:34;101802.31;;;-6.96;38.46
83448;BME280;73376;45.472;-73.568;2024-02-15T04:10:03;101771.72;;;-7.22;38.42
83448;BME280;73376;45.472;-73.568;2024-02-15T04:12:29;101802.91;;;-7.08;38.30
83448;BME280;73376;45.472;-73.568;2024-02-15T04:14:56;101788.22;;;-7.15;38.74
83448;BME280;73376;45.472;-73.568;2024-02-15T04:17:30;101818.63;;;-7.03;38.70
83448;BME280;73376;45.472;-73.568;2024-02-15T04:19:58;101819.50;;;-7.03;38.42
83448;BME280;73376;45.472;-73.568;2024-02-15T04:22:24;101832.47;;;-6.97;38.35
83448;BME280;73376;45.472;-73.568;2024-02-15T04:24:53;101835.38;;;-7.01;38.94
83448;BME280;73376;45.472;-73.568;2024-02-15T04:27:20;101837.22;;;-7.03;38.87
83448;BME280;73376;45.472;-73.568;2024-02-15T04:29:46;101831.75;;;-7.18;38.86
83448;BME280;73376;45.472;-73.568;2024-02-15T04:32:12;101830.25;;;-7.23;38.77
83448;BME280;73376;45.472;-73.568;2024-02-15T04:34:42;101864.13;;;-7.09;39.00
83448;BME280;73376;45.472;-73.568;2024-02-15T04:37:08;101866.13;;;-7.15;38.79
83448;BME280;73376;45.472;-73.568;2024-02-15T04:39:35;101822.16;;;-7.39;39.25
83448;BME280;73376;45.472;-73.568;2024-02-15T04:42:04;101872.44;;;-7.17;39.30
83448;BME280;73376;45.472;-73.568;2024-02-15T04:44:38;101856.97;;;-7.26;39.25
83448;BME280;73376;45.472;-73.568;2024-02-15T04:47:07;101861.50;;;-7.28;38.92
83448;BME280;73376;45.472;-73.568;2024-02-15T04:49:34;101852.00;;;-7.34;38.84
83448;BME280;73376;45.472;-73.568;2024-02-15T04:52:01;101887.81;;;-7.24;38.95
83448;BME280;73376;45.472;-73.568;2024-02-15T04:54:30;101893.22;;;-7.25;39.04
83448;BME280;73376;45.472;-73.568;2024-02-15T04:56:56;101878.00;;;-7.41;39.55
83448;BME280;73376;45.472;-73.568;2024-02-15T04:59:22;101898.97;;;-7.34;39.33
83448;BME280;73376;45.472;-73.568;2024-02-15T05:01:52;101842.13;;;-7.68;39.44
83448;BME280;73376;45.472;-73.568;2024-02-15T05:04:18;101877.16;;;-7.60;39.64
83448;BME280;73376;45.472;-73.568;2024-02-15T05:06:44;101887.66;;;-7.57;39.82
83448;BME280;73376;45.472;-73.568;2024-02-15T05:09:11;101890.22;;;-7.55;39.57
83448;BME280;73376;45.472;-73.568;2024-02-15T05:11:40;101868.06;;;-7.73;39.77
83448;BME280;73376;45.472;-73.568;2024-02-15T05:14:14;101887.34;;;-7.70;39.57
83448;BME280;73376;45.472;-73.568;2024-02-15T05:16:45;101918.72;;;-7.59;39.64
83448;BME280;73376;45.472;-73.568;2024-02-15T05:19:16;101909.38;;;-7.68;39.86
83448;BME280;73376;45.472;-73.568;2024-02-15T05:21:43;101924.25;;;-7.64;39.84
83448;BME280;73376;45.472;-73.568;2024-02-15T05:24:21;101900.09;;;-7.78;39.73
83448;BME280;73376;45.472;-73.568;2024-02-15T05:26:47;101928.13;;;-7.71;40.39
83448;BME280;73376;45.472;-73.568;2024-02-15T05:29:19;101882.38;;;-7.96;40.05
83448;BME280;73376;45.472;-73.568;2024-02-15T05:31:49;101936.22;;;-7.74;40.27
83448;BME280;73376;45.472;-73.568;2024-02-15T05:34:17;101946.13;;;-7.77;40.13
83448;BME280;73376;45.472;-73.568;2024-02-15T05:36:43;101911.06;;;-8.04;40.39
83448;BME280;73376;45.472;-73.568;2024-02-15T05:39:09;101931.06;;;-7.97;40.20
83448;BME280;73376;45.472;-73.568;2024-02-15T05:41:37;101946.88;;;-7.94;40.69
83448;BME280;73376;45.472;-73.568;2024-02-15T05:44:03;101945.25;;;-7.98;41.12
83448;BME280;73376;45.472;-73.568;2024-02-15T05:46:33;101916.06;;;-8.19;40.80
83448;BME280;73376;45.472;-73.568;2024-02-15T05:49:03;101924.03;;;-8.19;41.08
83448;BME280;73376;45.472;-73.568;2024-02-15T05:51:31;101934.50;;;-8.16;41.42
83448;BME280;73376;45.472;-73.568;2024-02-15T05:53:59;101952.69;;;-8.06;41.00
83448;BME280;73376;45.472;-73.568;2024-02-15T05:56:26;101962.31;;;-8.04;41.42
83448;BME280;73376;45.472;-73.568;2024-02-15T05:58:54;101951.03;;;-8.09;41.49
83448;BME280;73376;45.472;-73.568;2024-02-15T06:01:19;101955.47;;;-8.10;41.30
83448;BME280;73376;45.472;-73.568;2024-02-15T06:03:46;101973.66;;;-8.00;41.45
83448;BME280;73376;45.472;-73.568;2024-02-15T06:06:13;101924.72;;;-8.34;41.40
83448;BME280;73376;45.472;-73.568;2024-02-15T06:08:39;101978.28;;;-8.05;41.64
83448;BME280;73376;45.472;-73.568;2024-02-15T06:11:05;101955.94;;;-8.20;41.50
83448;BME280;73376;45.472;-73.568;2024-02-15T06:13:31;101982.94;;;-8.11;41.64
83448;BME280;73376;45.472;-73.568;2024-02-15T06:15:57;101978.03;;;-8.20;41.52
83448;BME280;73376;45.472;-73.568;2024-02-15T06:18:29;101935.84;;;-8.46;41.46
83448;BME280;73376;45.472;-73.568;2024-02-15T06:20:59;101978.16;;;-8.23;41.78
83448;BME280;73376;45.472;-73.568;2024-02-15T06:23:30;101984.41;;;-8.24;41.85
83448;BME280;73376;45.472;-73.568;2024-02-15T06:25:57;101948.13;;;-8.44;41.99
83448;BME280;73376;45.472;-73.568;2024-02-15T06:28:28;102000.84;;;-8.16;42.01
83448;BME280;73376;45.472;-73.568;2024-02-15T06:31:13;101994.88;;;-8.21;41.74
83448;BME280;73376;45.472;-73.568;2024-02-15T06:33:58;101988.50;;;-8.37;41.93
83448;BME280;73376;45.472;-73.568;2024-02-15T06:39:31;101973.22;;;-8.52;42.02
83448;BME280;73376;45.472;-73.568;2024-02-15T06:42:14;102015.81;;;-8.35;42.17
83448;BME280;73376;45.472;-73.568;2024-02-15T06:44:49;102012.47;;;-8.39;42.10
83448;BME280;73376;45.472;-73.568;2024-02-15T06:47:15;101998.88;;;-8.53;42.28
83448;BME280;73376;45.472;-73.568;2024-02-15T06:49:45;102018.75;;;-8.41;42.18
83448;BME280;73376;45.472;-73.568;2024-02-15T06:52:17;102014.69;;;-8.50;42.12
83448;BME280;73376;45.472;-73.568;2024-02-15T06:54:44;102030.34;;;-8.44;42.46
83448;BME280;73376;45.472;-73.568;2024-02-15T06:57:15;102029.59;;;-8.47;42.30
83448;BME280;73376;45.472;-73.568;2024-02-15T06:59:41;102023.75;;;-8.55;42.26
83448;BME280;73376;45.472;-73.568;2024-02-15T07:02:08;102034.38;;;-8.55;42.57
83448;BME280;73376;45.472;-73.568;2024-02-15T07:04:36;102037.19;;;-8.60;42.56
83448;BME280;73376;45.472;-73.568;2024-02-15T07:07:02;101989.03;;;-8.93;42.67
83448;BME280;73376;45.472;-73.568;2024-02-15T07:09:28;102004.88;;;-8.92;42.55
83448;BME280;73376;45.472;-73.568;2024-02-15T07:11:54;101991.81;;;-8.96;42.88
83448;BME280;73376;45.472;-73.568;2024-02-15T07:14:20;102026.47;;;-8.79;42.87
83448;BME280;73376;45.472;-73.568;2024-02-15T07:16:47;102019.69;;;-8.86;42.72
83448;BME280;73376;45.472;-73.568;2024-02-15T07:19:15;102007.00;;;-9.01;42.74
83448;BME280;73376;45.472;-73.568;2024-02-15T07:21:41;102003.53;;;-9.03;43.04
83448;BME280;73376;45.472;-73.568;2024-02-15T07:24:10;102035.63;;;-8.88;43.09
83448;BME280;73376;45.472;-73.568;2024-02-15T07:26:36;102039.00;;;-8.84;42.83
83448;BME280;73376;45.472;-73.568;2024-02-15T07:29:02;102007.00;;;-9.01;43.06
83448;BME280;73376;45.472;-73.568;2024-02-15T07:31:33;102045.44;;;-8.90;42.94
83448;BME280;73376;45.472;-73.568;2024-02-15T07:34:00;102040.47;;;-8.99;42.91
83448;BME280;73376;45.472;-73.568;2024-02-15T07:36:26;102031.91;;;-9.06;43.47
83448;BME280;73376;45.472;-73.568;2024-02-15T07:38:53;102020.78;;;-9.15;43.44
83448;BME280;73376;45.472;-73.568;2024-02-15T07:41:20;102000.31;;;-9.34;43.33
83448;BME280;73376;45.472;-73.568;2024-02-15T07:43:51;102050.38;;;-9.04;42.93
83448;BME280;73376;45.472;-73.568;2024-02-15T07:46:21;102046.34;;;-9.14;42.88
83448;BME280;73376;45.472;-73.568;2024-02-15T07:48:48;102051.81;;;-9.19;43.26
83448;BME280;73376;45.472;-73.568;2024-02-15T07:51:18;102042.50;;;-9.29;43.08
83448;BME280;73376;45.472;-73.568;2024-02-15T07:53:44;102049.28;;;-9.22;43.62
83448;BME280;73376;45.472;-73.568;2024-02-15T07:56:11;102037.94;;;-9.25;43.46
83448;BME280;73376;45.472;-73.568;2024-02-15T07:58:44;102040.53;;;-9.24;43.87
83448;BME280;73376;45.472;-73.568;2024-02-15T08:01:14;102044.06;;;-9.23;43.97
83448;BME280;73376;45.472;-73.568;2024-02-15T08:03:42;102043.25;;;-9.25;43.98
83448;BME280;73376;45.472;-73.568;2024-02-15T08:06:12;101999.44;;;-9.58;44.00
83448;BME280;73376;45.472;-73.568;2024-02-15T08:08:44;102020.38;;;-9.52;44.12
83448;BME280;73376;45.472;-73.568;2024-02-15T08:11:15;101997.91;;;-9.65;44.20
83448;BME280;73376;45.472;-73.568;2024-02-15T08:13:49;102043.69;;;-9.38;44.37
83448;BME280;73376;45.472;-73.568;2024-02-15T08:16:20;102051.41;;;-9.32;44.59
83448;BME280;73376;45.472;-73.568;2024-02-15T08:18:51;102039.28;;;-9.37;44.22
83448;BME280;73376;45.472;-73.568;2024-02-15T08:21:27;102049.59;;;-9.30;44.57
83448;BME280;73376;45.472;-73.568;2024-02-15T08:24:00;102017.78;;;-9.53;44.44
83448;BME280;73376;45.472;-73.568;2024-02-15T08:26:32;102047.34;;;-9.40;44.33
83448;BME280;73376;45.472;-73.568;2024-02-15T08:28:59;102040.41;;;-9.44;44.20
83448;BME280;73376;45.472;-73.568;2024-02-15T08:31:24;101996.47;;;-9.73;44.31
83448;BME280;73376;45.472;-73.568;2024-02-15T08:33:53;102019.31;;;-9.71;44.27
83448;BME280;73376;45.472;-73.568;2024-02-15T08:36:19;102016.69;;;-9.71;44.41
83448;BME280;73376;45.472;-73.568;2024-02-15T08:38:49;102034.72;;;-9.57;44.68
83448;BME280;73376;45.472;-73.568;2024-02-15T08:41:18;102033.97;;;-9.61;44.73
83448;BME280;73376;45.472;-73.568;2024-02-15T08:43:46;102027.91;;;-9.64;44.50
83448;BME280;73376;45.472;-73.568;2024-02-15T08:46:15;102024.50;;;-9.68;44.10
83448;BME280;73376;45.472;-73.568;2024-02-15T08:48:41;102000.59;;;-9.90;44.57
83448;BME280;73376;45.472;-73.568;2024-02-15T08:51:09;102017.31;;;-9.89;44.98
83448;BME280;73376;45.472;-73.568;2024-02-15T08:53:35;102022.59;;;-9.89;44.66
83448;BME280;73376;45.472;-73.568;2024-02-15T08:56:04;102007.94;;;-9.98;44.78
83448;BME280;73376;45.472;-73.568;2024-02-15T08:58:31;102045.06;;;-9.76;44.93
83448;BME280;73376;45.472;-73.568;2024-02-15T09:00:58;102029.38;;;-9.81;44.55
83448;BME280;73376;45.472;-73.568;2024-02-15T09:03:24;102015.53;;;-9.89;44.82
83448;BME280;73376;45.472;-73.568;2024-02-15T09:05:50;102018.94;;;-9.85;45.15
83448;BME280;73376;45.472;-73.568;2024-02-15T09:08:17;102019.69;;;-9.82;45.02
83448;BME280;73376;45.472;-73.568;2024-02-15T09:10:49;101997.28;;;-9.96;45.14
83448;BME280;73376;45.472;-73.568;2024-02-15T09:13:17;102017.16;;;-9.85;45.61
83448;BME280;73376;45.472;-73.568;2024-02-15T09:15:43;102006.94;;;-9.95;45.24
83448;BME280;73376;45.472;-73.568;2024-02-15T09:18:08;101988.69;;;-10.03;45.31
83448;BME280;73376;45.472;-73.568;2024-02-15T09:20:37;101991.34;;;-10.03;45.00
83448;BME280;73376;45.472;-73.568;2024-02-15T09:23:12;101976.81;;;-10.16;44.99
83448;BME280;73376;45.472;-73.568;2024-02-15T09:25:40;101982.81;;;-10.11;45.23
83448;BME280;73376;45.472;-73.568;2024-02-15T09:28:10;101971.19;;;-10.31;45.40
83448;BME280;73376;45.472;-73.568;2024-02-15T09:30:36;101988.41;;;-10.20;45.37
83448;BME280;73376;45.472;-73.568;2024-02-15T09:33:02;102010.34;;;-10.17;45.40
83448;BME280;73376;45.472;-73.568;2024-02-15T09:35:31;102027.88;;;-10.14;45.73
83448;BME280;73376;45.472;-73.568;2024-02-15T09:37:57;102040.81;;;-10.05;45.73
83448;BME280;73376;45.472;-73.568;2024-02-15T09:40:23;102036.63;;;-10.12;46.16
83448;BME280;73376;45.472;-73.568;2024-02-15T09:42:54;102044.25;;;-10.03;45.69
83448;BME280;73376;45.472;-73.568;2024-02-15T09:45:20;102007.09;;;-10.25;45.73
83448;BME280;73376;45.472;-73.568;2024-02-15T09:47:52;102034.97;;;-10.15;45.78
83448;BME280;73376;45.472;-73.568;2024-02-15T09:50:19;102018.53;;;-10.25;45.69
83448;BME280;73376;45.472;-73.568;2024-02-15T09:52:49;102035.91;;;-10.17;45.75
83448;BME280;73376;45.472;-73.568;2024-02-15T09:55:15;102019.72;;;-10.33;45.98
83448;BME280;73376;45.472;-73.568;2024-02-15T09:57:43;102043.03;;;-10.19;45.64
83448;BME280;73376;45.472;-73.568;2024-02-15T10:00:22;101991.28;;;-10.52;46.42
83448;BME280;73376;45.472;-73.568;2024-02-15T10:02:51;102047.25;;;-10.14;45.92
83448;BME280;73376;45.472;-73.568;2024-02-15T10:05:22;102044.63;;;-10.14;46.21
83448;BME280;73376;45.472;-73.568;2024-02-15T10:07:48;102043.00;;;-10.18;46.53
83448;BME280;73376;45.472;-73.568;2024-02-15T10:10:19;102036.03;;;-10.20;46.50
83448;BME280;73376;45.472;-73.568;2024-02-15T10:12:49;102017.16;;;-10.35;46.85
83448;BME280;73376;45.472;-73.568;2024-02-15T10:15:39;102048.28;;;-10.18;46.93
83448;BME280;73376;45.472;-73.568;2024-02-15T10:18:07;102008.66;;;-10.44;47.49
83448;BME280;73376;45.472;-73.568;2024-02-15T10:20:36;102006.09;;;-10.48;47.77
83448;BME280;73376;45.472;-73.568;2024-02-15T10:23:13;102065.94;;;-10.18;47.64
83448;BME280;73376;45.472;-73.568;2024-02-15T10:25:43;102055.38;;;-10.20;47.78
83448;BME280;73376;45.472;-73.568;2024-02-15T10:28:10;102059.88;;;-10.22;48.43
83448;BME280;73376;45.472;-73.568;2024-02-15T10:30:42;102060.91;;;-10.26;48.84
83448;BME280;73376;45.472;-73.568;2024-02-15T10:35:46;102059.38;;;-10.33;48.73
83448;BME280;73376;45.472;-73.568;2024-02-15T10:38:12;102028.94;;;-10.45;48.85
83448;BME280;73376;45.472;-73.568;2024-02-15T10:40:43;102033.38;;;-10.45;49.30
83448;BME280;73376;45.472;-73.568;2024-02-15T10:43:11;102069.75;;;-10.27;49.13
83448;BME280;73376;45.472;-73.568;2024-02-15T10:45:40;102060.25;;;-10.33;49.24
83448;BME280;73376;45.472;-73.568;2024-02-15T10:48:11;102047.28;;;-10.40;49.46
83448;BME280;73376;45.472;-73.568;2024-02-15T10:50:41;102079.34;;;-10.25;49.67
83448;BME280;73376;45.472;-73.568;2024-02-15T10:53:21;102062.09;;;-10.35;50.05
83448;BME280;73376;45.472;-73.568;2024-02-15T10:56:04;102044.63;;;-10.40;49.58
83448;BME280;73376;45.472;-73.568;2024-02-15T10:58:50;102070.72;;;-10.30;50.48
83448;BME280;73376;45.472;-73.568;2024-02-15T11:01:22;102065.28;;;-10.25;50.75
83448;BME280;73376;45.472;-73.568;2024-02-15T11:03:52;102046.31;;;-10.38;50.73
83448;BME280;73376;45.472;-73.568;2024-02-15T11:06:26;102045.47;;;-10.38;50.63
83448;BME280;73376;45.472;-73.568;2024-02-15T11:08:53;102033.47;;;-10.49;50.26
83448;BME280;73376;45.472;-73.568;2024-02-15T11:11:19;102046.63;;;-10.47;50.55
83448;BME280;73376;45.472;-73.568;2024-02-15T11:13:46;102043.94;;;-10.45;50.39
83448;BME280;73376;45.472;-73.568;2024-02-15T11:16:43;102053.59;;;-10.44;50.44
83448;BME280;73376;45.472;-73.568;2024-02-15T11:19:09;102053.66;;;-10.46;50.71
83448;BME280;73376;45.472;-73.568;2024-02-15T11:21:55;102021.56;;;-10.62;50.71
83448;BME280;73376;45.472;-73.568;2024-02-15T11:24:32;102049.34;;;-10.50;50.64
83448;BME280;73376;45.472;-73.568;2024-02-15T11:27:03;102014.66;;;-10.66;51.08
83448;BME280;73376;45.472;-73.568;2024-02-15T11:32:36;102041.50;;;-10.53;50.94
83448;BME280;73376;45.472;-73.568;2024-02-15T11:35:12;101984.38;;;-10.84;51.14
83448;BME280;73376;45.472;-73.568;2024-02-15T11:40:28;102025.44;;;-10.74;51.07
83448;BME280;73376;45.472;-73.568;2024-02-15T11:42:56;102029.09;;;-10.78;51.11
83448;BME280;73376;45.472;-73.568;2024-02-15T11:45:28;102039.53;;;-10.73;51.30
83448;BME280;73376;45.472;-73.568;2024-02-15T11:48:13;102044.69;;;-10.70;51.65
83448;BME280;73376;45.472;-73.568;2024-02-15T11:50:39;102048.94;;;-10.64;52.22
83448;BME280;73376;45.472;-73.568;2024-02-15T11:53:07;102038.63;;;-10.72;51.70
83448;BME280;73376;45.472;-73.568;2024-02-15T11:55:37;102041.09;;;-10.67;51.64
83448;BME280;73376;45.472;-73.568;2024-02-15T11:58:09;102021.41;;;-10.85;51.29
83448;BME280;73376;45.472;-73.568;2024-02-15T12:00:37;102053.34;;;-10.65;51.34
83448;BME280;73376;45.472;-73.568;2024-02-15T12:03:23;102059.59;;;-10.67;52.15
83448;BME280;73376;45.472;-73.568;2024-02-15T12:06:08;102067.41;;;-10.63;51.97
83448;BME280;73376;45.472;-73.568;2024-02-15T12:08:58;102065.56;;;-10.61;52.34
83448;BME280;73376;45.472;-73.568;2024-02-15T12:11:43;102018.88;;;-10.88;52.59
83448;BME280;73376;45.472;-73.568;2024-02-15T12:14:27;102036.16;;;-10.78;51.76
83448;BME280;73376;45.472;-73.568;2024-02-15T12:17:13;102077.75;;;-10.57;51.71
83448;BME280;73376;45.472;-73.568;2024-02-15T12:20:02;102086.34;;;-10.50;52.51
83448;BME280;73376;45.472;-73.568;2024-02-15T12:22:44;102084.53;;;-10.48;52.52
83448;BME280;73376;45.472;-73.568;2024-02-15T12:25:16;102096.75;;;-10.44;52.75
83448;BME280;73376;45.472;-73.568;2024-02-15T12:27:52;102093.16;;;-10.41;52.26
83448;BME280;73376;45.472;-73.568;2024-02-15T12:30:19;102070.66;;;-10.55;52.01
83448;BME280;73376;45.472;-73.568;2024-02-15T12:32:51;102045.59;;;-10.69;52.73
83448;BME280;73376;45.472;-73.568;2024-02-15T12:35:22;102090.31;;;-10.35;52.38
83448;BME280;73376;45.472;-73.568;2024-02-15T12:40:38;102102.28;;;-10.25;52.41
83448;BME280;73376;45.472;-73.568;2024-02-15T12:43:10;102073.53;;;-10.34;52.56
83448;BME280;73376;45.472;-73.568;2024-02-15T12:45:43;102087.19;;;-10.21;52.44
83448;BME280;73376;45.472;-73.568;2024-02-15T12:48:09;102097.41;;;-10.11;52.65
83448;BME280;73376;45.472;-73.568;2024-02-15T12:50:36;102062.75;;;-10.28;52.60
83448;BME280;73376;45.472;-73.568;2024-02-15T12:53:02;102084.03;;;-10.06;52.71